createdAt,value
2018-07-23T00:01:46.152Z,99085.53
2018-07-23T00:04:20.849Z,99085.06
2018-07-23T00:06:55.411Z,99077.46
2018-07-23T00:09:29.896Z,99076.71
2018-07-23T00:12:04.513Z,99073.22
2018-07-23T00:14:39.085Z,99072.33
2018-07-23T00:17:13.607Z,99073.70
2018-07-23T00:19:48.046Z,99071.62
2018-07-23T00:22:22.530Z,99072.59
2018-07-23T00:24:56.960Z,99071.91
2018-07-23T00:27:31.444Z,99072.44
2018-07-23T00:30:06.492Z,99080.49
2018-07-23T00:32:40.874Z,99073.66
2018-07-23T00:35:15.319Z,99076.41
2018-07-23T00:37:49.856Z,99074.73
2018-07-23T00:40:24.437Z,99071.41
2018-07-23T00:42:59.092Z,99072.69
2018-07-23T00:45:33.582Z,99071.22
2018-07-23T00:48:07.952Z,99067.80
2018-07-23T00:50:42.452Z,99069.75
2018-07-23T00:53:17.032Z,99065.77
2018-07-23T00:55:51.481Z,99072.15
2018-07-23T00:58:26.014Z,99070.33
2018-07-23T01:01:00.723Z,99071.61
2018-07-23T01:03:35.336Z,99070.58
2018-07-23T01:06:10.114Z,99069.08
2018-07-23T01:08:44.720Z,99068.64
2018-07-23T01:11:19.444Z,99067.71
2018-07-23T01:13:54.055Z,99068.09
2018-07-23T01:16:28.706Z,99069.59
2018-07-23T01:19:03.381Z,99069.34
2018-07-23T01:21:38.308Z,99073.94
2018-07-23T01:24:12.902Z,99076.33
2018-07-23T01:26:47.598Z,99078.82
2018-07-23T01:29:22.188Z,99083.95
2018-07-23T01:31:56.719Z,99090.84
2018-07-23T01:34:31.277Z,99085.52
2018-07-23T01:37:12.068Z,99086.45
2018-07-23T01:39:46.637Z,99092.30
2018-07-23T01:42:21.144Z,99089.09
2018-07-23T01:44:55.739Z,99087.86
2018-07-23T01:47:30.217Z,99087.30
2018-07-23T01:50:04.789Z,99082.18
2018-07-23T01:52:39.384Z,99083.31
2018-07-23T01:55:13.860Z,99084.13
2018-07-23T01:57:48.432Z,99087.67
2018-07-23T02:00:22.817Z,99089.72
2018-07-23T02:02:57.383Z,99086.08
2018-07-23T02:05:31.952Z,99090.62
2018-07-23T02:08:06.672Z,99095.65
2018-07-23T02:10:41.461Z,99097.94
2018-07-23T02:13:16.127Z,99097.38
2018-07-23T02:15:50.743Z,99092.46
2018-07-23T02:18:25.421Z,99098.60
2018-07-23T02:21:00.016Z,99103.86
2018-07-23T02:23:34.586Z,99101.60
2018-07-23T02:26:13.433Z,99103.52
2018-07-23T02:28:48.085Z,99098.60
2018-07-23T02:31:22.874Z,99109.00
2018-07-23T02:33:57.466Z,99106.25
2018-07-23T02:36:32.065Z,99108.08
2018-07-23T02:39:09.072Z,99112.20
2018-07-23T02:41:43.583Z,99111.40
2018-07-23T02:44:18.157Z,99113.68
2018-07-23T02:46:52.590Z,99114.70
2018-07-23T02:49:27.278Z,99102.94
2018-07-23T02:52:01.757Z,99102.14
2018-07-23T02:54:36.501Z,99106.48
2018-07-23T02:57:11.067Z,99110.71
2018-07-23T02:59:46.001Z,99108.89
2018-07-23T03:05:41.687Z,99108.31
2018-07-23T03:08:16.198Z,99106.25
2018-07-23T03:10:50.781Z,99112.42
2018-07-23T03:13:25.465Z,99106.03
2018-07-23T03:16:00.459Z,99105.11
2018-07-23T03:18:34.932Z,99103.40
2018-07-23T03:21:10.261Z,99108.42
2018-07-23T03:23:44.729Z,99113.56
2018-07-23T03:26:19.609Z,99115.30
2018-07-23T03:28:54.161Z,99112.79
2018-07-23T03:31:28.841Z,99113.70
2018-07-23T03:34:03.491Z,99117.13
2018-07-23T03:36:38.097Z,99119.76
2018-07-23T03:39:12.689Z,99120.79
2018-07-23T03:41:47.209Z,99119.88
2018-07-23T03:44:21.666Z,99126.52
2018-07-23T03:46:56.257Z,99121.01
2018-07-23T03:49:30.749Z,99121.46
2018-07-23T03:52:05.277Z,99126.96
2018-07-23T03:54:39.720Z,99133.38
2018-07-23T03:57:14.624Z,99138.64
2018-07-23T03:59:49.235Z,99131.99
2018-07-23T04:02:23.937Z,99136.11
2018-07-23T04:04:58.457Z,99140.81
2018-07-23T04:07:32.933Z,99135.06
2018-07-23T04:10:16.405Z,99141.58
2018-07-23T04:13:09.422Z,99138.61
2018-07-23T04:15:43.980Z,99135.61
2018-07-23T04:18:18.465Z,99145.80
2018-07-23T04:20:52.892Z,99145.14
2018-07-23T04:26:32.111Z,99140.20
2018-07-23T04:29:25.800Z,99144.31
2018-07-23T04:32:00.363Z,99150.97
2018-07-23T04:34:34.973Z,99150.05
2018-07-23T04:37:09.472Z,99152.67
2018-07-23T04:39:44.294Z,99157.94
2018-07-23T04:42:19.041Z,99155.20
2018-07-23T04:44:53.631Z,99147.98
2018-07-23T04:47:28.308Z,99154.40
2018-07-23T04:50:02.977Z,99156.35
2018-07-23T04:52:37.677Z,99156.21
2018-07-23T04:55:12.200Z,99147.41
2018-07-23T04:57:46.810Z,99150.48
2018-07-23T05:00:21.361Z,99151.52
2018-07-23T05:02:55.769Z,99156.89
2018-07-23T05:05:30.178Z,99156.14
2018-07-23T05:08:04.634Z,99152.93
2018-07-23T05:10:39.140Z,99158.37
2018-07-23T05:13:13.678Z,99160.64
2018-07-23T05:15:48.114Z,99160.54
2018-07-23T05:18:22.698Z,99161.75
2018-07-23T05:20:57.401Z,99155.70
2018-07-23T05:23:32.005Z,99158.56
2018-07-23T05:26:06.823Z,99164.43
2018-07-23T05:28:41.274Z,99167.65
2018-07-23T05:31:15.628Z,99167.78
2018-07-23T05:33:50.045Z,99168.95
2018-07-23T05:36:24.573Z,99169.61
2018-07-23T05:38:59.056Z,99166.55
2018-07-23T05:41:33.785Z,99158.36
2018-07-23T05:44:08.450Z,99165.56
2018-07-23T05:46:43.017Z,99167.11
2018-07-23T05:49:17.778Z,99167.17
2018-07-23T05:51:52.518Z,99171.11
2018-07-23T05:54:27.177Z,99172.04
2018-07-23T05:57:01.778Z,99167.60
2018-07-23T05:59:36.554Z,99166.62
2018-07-23T06:02:11.070Z,99163.45
2018-07-23T06:04:45.792Z,99170.62
2018-07-23T06:07:20.192Z,99171.63
2018-07-23T06:09:54.650Z,99168.98
2018-07-23T06:12:29.359Z,99171.75
2018-07-23T06:15:03.921Z,99171.79
2018-07-23T06:17:38.397Z,99169.50
2018-07-23T06:20:12.779Z,99168.57
2018-07-23T06:22:47.322Z,99173.98
2018-07-23T06:31:24.874Z,99167.30
2018-07-23T06:33:59.415Z,99170.19
2018-07-23T06:36:34.078Z,99174.95
2018-07-23T06:39:10.337Z,99179.29
2018-07-23T06:41:44.718Z,99179.77
2018-07-23T06:44:19.346Z,99181.20
2018-07-23T06:46:54.045Z,99183.59
2018-07-23T06:49:28.540Z,99185.86
2018-07-23T06:52:03.065Z,99187.05
2018-07-23T06:54:38.097Z,99185.57
2018-07-23T06:57:13.617Z,99183.50
2018-07-23T06:59:48.024Z,99184.42
2018-07-23T07:02:22.444Z,99185.53
2018-07-23T07:04:56.877Z,99191.72
2018-07-23T07:07:31.487Z,99201.63
2018-07-23T07:10:06.406Z,99196.62
2018-07-23T07:12:40.801Z,99203.19
2018-07-23T07:15:15.284Z,99199.87
2018-07-23T07:17:49.648Z,99196.16
2018-07-23T07:20:24.181Z,99197.57
2018-07-23T07:22:58.621Z,99196.30
2018-07-23T07:25:33.169Z,99199.23
2018-07-23T07:28:07.561Z,99204.62
2018-07-23T07:30:42.181Z,99204.92
2018-07-23T07:33:16.756Z,99196.95
2018-07-23T07:35:51.229Z,99198.51
2018-07-23T07:38:25.756Z,99201.39
2018-07-23T07:41:00.266Z,99200.10
2018-07-23T07:43:34.893Z,99200.67
2018-07-23T07:46:09.409Z,99203.52
2018-07-23T07:48:43.936Z,99204.34
2018-07-23T07:51:18.306Z,99190.03
2018-07-23T07:53:52.708Z,99192.01
2018-07-23T07:56:27.132Z,99200.05
2018-07-23T07:59:01.800Z,99189.14
2018-07-23T08:01:36.340Z,99189.39
2018-07-23T08:04:10.728Z,99186.08
2018-07-23T08:06:50.016Z,99187.49
2018-07-23T08:09:24.440Z,99188.84
2018-07-23T08:11:58.957Z,99183.05
2018-07-23T08:14:33.567Z,99189.09
2018-07-23T08:17:08.204Z,99194.48
2018-07-23T08:19:42.614Z,99198.92
2018-07-23T08:22:16.959Z,99192.55
2018-07-23T08:24:51.338Z,99192.46
2018-07-23T08:27:26.064Z,99193.08
2018-07-23T08:30:00.292Z,99196.98
2018-07-23T08:32:34.952Z,99192.73
2018-07-23T08:35:09.376Z,99196.64
2018-07-23T08:37:43.629Z,99195.63
2018-07-23T08:40:18.261Z,99195.13
2018-07-23T08:42:52.684Z,99190.05
2018-07-23T08:45:27.088Z,99193.40
2018-07-23T08:48:01.410Z,99199.86
2018-07-23T08:50:35.861Z,99190.84
2018-07-23T08:53:10.274Z,99193.17
2018-07-23T08:55:44.711Z,99193.45
2018-07-23T08:58:19.141Z,99202.67
2018-07-23T09:00:53.541Z,99202.02
2018-07-23T09:03:27.976Z,99199.80
2018-07-23T09:06:02.361Z,99203.32
2018-07-23T09:08:36.995Z,99206.24
2018-07-23T09:11:11.411Z,99200.86
2018-07-23T09:13:45.806Z,99209.13
2018-07-23T09:16:20.178Z,99209.67
2018-07-23T09:18:54.576Z,99209.12
2018-07-23T09:21:28.857Z,99211.53
2018-07-23T09:24:03.131Z,99210.70
2018-07-23T09:26:37.555Z,99205.84
2018-07-23T09:29:11.947Z,99209.99
2018-07-23T09:31:46.364Z,99207.02
2018-07-23T09:34:20.781Z,99211.34
2018-07-23T09:36:55.531Z,99210.09
2018-07-23T09:39:29.917Z,99208.42
2018-07-23T09:42:04.333Z,99209.55
2018-07-23T09:44:59.242Z,99211.55
2018-07-23T09:50:33.015Z,99210.98
2018-07-23T09:53:07.312Z,99207.34
2018-07-23T09:55:41.769Z,99205.59
2018-07-23T09:58:16.199Z,99205.38
2018-07-23T10:00:54.676Z,99204.77
2018-07-23T10:03:29.024Z,99208.28
2018-07-23T10:06:03.316Z,99210.22
2018-07-23T10:08:37.631Z,99208.59
2018-07-23T10:11:12.040Z,99198.70
2018-07-23T10:13:46.307Z,99198.20
2018-07-23T10:16:20.716Z,99203.70
2018-07-23T10:18:55.129Z,99203.45
2018-07-23T10:21:29.568Z,99200.05
2018-07-23T10:24:03.949Z,99197.44
2018-07-23T10:26:38.357Z,99201.14
2018-07-23T10:29:12.768Z,99201.91
2018-07-23T10:34:44.168Z,99198.61
2018-07-23T10:37:18.427Z,99201.58
2018-07-23T10:39:52.720Z,99202.17
2018-07-23T10:42:27.015Z,99204.25
2018-07-23T10:45:01.860Z,99193.23
2018-07-23T10:47:36.208Z,99195.58
2018-07-23T10:50:10.558Z,99197.73
2018-07-23T10:52:45.307Z,99188.31
2018-07-23T10:55:19.633Z,99182.65
2018-07-23T10:57:54.272Z,99191.80
2018-07-23T11:00:28.706Z,99191.53
2018-07-23T11:03:02.948Z,99180.19
2018-07-23T11:05:37.449Z,99176.73
2018-07-23T11:08:11.752Z,99181.14
2018-07-23T11:10:46.247Z,99177.73
2018-07-23T11:13:20.571Z,99180.75
2018-07-23T11:15:54.994Z,99182.88
2018-07-23T11:18:29.463Z,99179.30
2018-07-23T11:21:27.874Z,99181.31
2018-07-23T11:24:02.199Z,99182.34
2018-07-23T11:26:36.786Z,99173.23
2018-07-23T11:29:14.510Z,99176.19
2018-07-23T11:31:48.953Z,99175.62
2018-07-23T11:34:23.488Z,99179.88
2018-07-23T11:39:56.785Z,99188.31
2018-07-23T11:42:31.014Z,99180.33
2018-07-23T11:45:05.434Z,99182.47
2018-07-23T11:47:39.959Z,99178.55
2018-07-23T11:50:14.259Z,99174.19
2018-07-23T11:52:49.104Z,99177.06
2018-07-23T11:55:23.607Z,99173.11
2018-07-23T11:57:57.997Z,99177.48
2018-07-23T12:00:32.402Z,99177.22
2018-07-23T12:03:06.863Z,99177.00
2018-07-23T12:05:41.228Z,99172.58
2018-07-23T12:08:15.675Z,99174.14
2018-07-23T12:10:50.089Z,99169.95
2018-07-23T12:13:24.516Z,99168.01
2018-07-23T12:15:58.911Z,99171.89
2018-07-23T12:18:33.200Z,99176.82
2018-07-23T12:21:07.649Z,99169.64
2018-07-23T12:23:42.015Z,99174.47
2018-07-23T12:26:16.378Z,99173.91
2018-07-23T12:28:50.837Z,99170.81
2018-07-23T12:31:25.259Z,99165.91
2018-07-23T12:33:59.625Z,99167.48
2018-07-23T12:36:34.093Z,99166.32
2018-07-23T12:39:11.010Z,99161.86
2018-07-23T12:41:45.502Z,99162.20
2018-07-23T12:44:20.148Z,99162.02
2018-07-23T12:46:54.762Z,99167.15
2018-07-23T12:49:29.434Z,99159.38
2018-07-23T12:52:03.970Z,99159.02
2018-07-23T12:54:38.602Z,99162.80
2018-07-23T12:57:13.213Z,99158.66
2018-07-23T12:59:47.695Z,99156.83
2018-07-23T13:02:32.281Z,99153.23
2018-07-23T13:11:11.265Z,99146.52
2018-07-23T13:13:46.976Z,99148.83
2018-07-23T13:16:21.476Z,99150.95
2018-07-23T13:18:56.376Z,99149.30
2018-07-23T13:21:30.690Z,99155.03
2018-07-23T13:24:05.353Z,99152.83
2018-07-23T13:26:39.829Z,99144.20
2018-07-23T13:29:14.511Z,99144.56
2018-07-23T13:31:49.300Z,99153.02
2018-07-23T13:34:23.712Z,99144.75
2018-07-23T13:36:58.094Z,99146.52
2018-07-23T13:39:32.562Z,99139.45
2018-07-23T13:42:07.176Z,99139.78
2018-07-23T13:44:41.709Z,99140.82
2018-07-23T13:47:16.156Z,99140.16
2018-07-23T13:49:50.726Z,99139.69
2018-07-23T13:52:25.106Z,99134.94
2018-07-23T13:54:59.709Z,99131.80
2018-07-23T13:57:34.716Z,99130.97
2018-07-23T14:00:09.303Z,99123.61
2018-07-23T14:02:43.927Z,99121.04
2018-07-23T14:05:18.459Z,99128.70
2018-07-23T14:07:53.005Z,99119.18
2018-07-23T14:10:27.852Z,99116.67
2018-07-23T14:13:02.204Z,99115.23
2018-07-23T14:15:36.614Z,99122.12
2018-07-23T14:18:10.988Z,99118.64
2018-07-23T14:20:45.406Z,99120.48
2018-07-23T14:23:20.014Z,99119.77
2018-07-23T14:25:54.593Z,99123.16
2018-07-23T14:28:29.264Z,99122.85
2018-07-23T14:31:03.798Z,99121.50
2018-07-23T14:33:38.265Z,99116.30
2018-07-23T14:36:12.850Z,99119.73
2018-07-23T14:38:47.364Z,99116.92
2018-07-23T14:41:21.921Z,99113.46
2018-07-23T14:43:56.385Z,99106.84
2018-07-23T14:46:30.909Z,99103.36
2018-07-23T14:49:05.752Z,99111.98
2018-07-23T14:51:40.218Z,99109.95
2018-07-23T14:54:14.617Z,99099.92
2018-07-23T14:56:49.016Z,99105.12
2018-07-23T14:59:23.602Z,99109.40
2018-07-23T15:01:58.065Z,99103.10
2018-07-23T15:04:32.569Z,99096.05
2018-07-23T15:10:21.146Z,99100.28
2018-07-23T15:12:55.757Z,99092.28
2018-07-23T15:15:30.132Z,99096.14
2018-07-23T15:18:04.589Z,99094.06
2018-07-23T15:20:39.124Z,99092.80
2018-07-23T15:23:13.637Z,99084.36
2018-07-23T15:25:48.292Z,99089.99
2018-07-23T15:28:22.977Z,99084.20
2018-07-23T15:30:57.877Z,99084.80
2018-07-23T15:33:32.308Z,99089.92
2018-07-23T15:36:06.733Z,99088.38
2018-07-23T15:38:41.664Z,99088.08
2018-07-23T15:41:16.185Z,99088.06
2018-07-23T15:43:50.834Z,99076.66
2018-07-23T15:46:25.152Z,99077.10
2018-07-23T15:48:59.685Z,99078.84
2018-07-23T15:51:34.076Z,99077.52
2018-07-23T15:54:08.527Z,99071.91
2018-07-23T15:56:43.129Z,99083.45
2018-07-23T15:59:17.964Z,99083.01
2018-07-23T16:01:52.551Z,99082.44
2018-07-23T16:04:27.100Z,99081.45
2018-07-23T16:07:01.508Z,99076.70
2018-07-23T16:09:36.011Z,99071.97
2018-07-23T16:12:10.612Z,99075.39
2018-07-23T16:14:45.382Z,99069.61
2018-07-23T16:17:19.995Z,99067.87
2018-07-23T16:19:54.644Z,99066.27
2018-07-23T16:22:29.189Z,99069.55
2018-07-23T16:25:03.693Z,99071.47
2018-07-23T16:27:38.558Z,99070.00
2018-07-23T16:30:17.138Z,99075.72
2018-07-23T16:32:51.503Z,99078.33
2018-07-23T16:35:26.268Z,99080.09
2018-07-23T16:38:00.761Z,99080.31
2018-07-23T16:40:35.315Z,99080.03
2018-07-23T16:43:09.758Z,99076.30
2018-07-23T16:45:44.296Z,99074.90
2018-07-23T16:48:18.822Z,99081.52
2018-07-23T16:50:53.238Z,99076.34
2018-07-23T16:53:27.752Z,99078.16
2018-07-23T16:56:02.381Z,99077.34
2018-07-23T16:58:36.950Z,99071.47
2018-07-23T17:01:11.435Z,99071.59
2018-07-23T17:03:45.936Z,99071.17
2018-07-23T17:06:20.365Z,99065.89
2018-07-23T17:08:54.904Z,99061.30
2018-07-23T17:11:29.529Z,99057.83
2018-07-23T17:14:03.978Z,99060.48
2018-07-23T17:16:38.761Z,99060.86
2018-07-23T17:19:13.165Z,99061.09
2018-07-23T17:21:47.676Z,99058.70
2018-07-23T17:24:22.116Z,99063.16
2018-07-23T17:26:56.484Z,99071.11
2018-07-23T17:29:30.976Z,99072.32
2018-07-23T17:32:05.564Z,99065.81
2018-07-23T17:34:40.116Z,99075.06
2018-07-23T17:37:14.542Z,99072.56
2018-07-23T17:39:49.014Z,99067.07
2018-07-23T17:42:23.526Z,99064.92
2018-07-23T17:44:58.188Z,99067.34
2018-07-23T17:47:32.749Z,99065.95
2018-07-23T17:50:07.386Z,99069.67
2018-07-23T17:52:41.972Z,99068.54
2018-07-23T17:55:16.466Z,99067.48
2018-07-23T17:57:51.068Z,99064.96
2018-07-23T18:00:25.746Z,99062.66
2018-07-23T18:03:00.188Z,99056.86
2018-07-23T18:05:34.866Z,99061.80
2018-07-23T18:08:09.345Z,99061.72
2018-07-23T18:10:44.046Z,99066.05
2018-07-23T18:13:18.712Z,99057.28
2018-07-23T18:15:53.343Z,99058.86
2018-07-23T18:18:27.906Z,99060.89
2018-07-23T18:21:02.295Z,99058.34
2018-07-23T18:23:36.840Z,99056.63
2018-07-23T18:26:11.597Z,99067.14
2018-07-23T18:28:46.162Z,99061.27
2018-07-23T18:31:20.716Z,99061.16
2018-07-23T18:33:55.331Z,99061.98
2018-07-23T18:36:29.898Z,99062.20
2018-07-23T18:39:06.993Z,99062.66
2018-07-23T18:41:42.047Z,99061.50
2018-07-23T18:44:17.905Z,99061.98
2018-07-23T18:46:52.672Z,99063.78
2018-07-23T18:49:42.187Z,99062.22
2018-07-23T18:52:17.363Z,99060.83
2018-07-23T18:54:53.126Z,99058.07
2018-07-23T18:57:28.690Z,99060.27
2018-07-23T19:00:03.239Z,99057.69
2018-07-23T19:02:37.785Z,99060.88
2018-07-23T19:05:12.397Z,99063.08
2018-07-23T19:07:47.042Z,99061.07
2018-07-23T19:10:21.504Z,99061.67
2018-07-23T19:12:56.251Z,99058.49
2018-07-23T19:15:37.297Z,99069.80
2018-07-23T19:18:11.893Z,99069.58
2018-07-23T19:20:46.675Z,99071.93
2018-07-23T19:23:21.401Z,99074.30
2018-07-23T19:25:55.976Z,99078.41
2018-07-23T19:28:32.228Z,99077.61
2018-07-23T19:31:08.050Z,99080.38
2018-07-23T19:33:42.854Z,99081.55
2018-07-23T19:36:18.080Z,99085.09
2018-07-23T19:38:52.768Z,99087.19
2018-07-23T19:41:28.022Z,99080.64
2018-07-23T19:44:02.658Z,99094.87
2018-07-23T19:46:37.163Z,99086.55
2018-07-23T19:49:12.103Z,99098.27
2018-07-23T19:51:46.675Z,99091.16
2018-07-23T19:54:21.282Z,99088.08
2018-07-23T19:56:56.013Z,99087.11
2018-07-23T19:59:30.605Z,99083.77
2018-07-23T20:02:05.392Z,99088.91
2018-07-23T20:04:43.604Z,99087.37
2018-07-23T20:07:28.205Z,99090.15
2018-07-23T20:10:06.081Z,99091.55
2018-07-23T20:12:40.579Z,99090.75
2018-07-23T20:15:15.325Z,99094.05
2018-07-23T20:17:49.837Z,99089.77
2018-07-23T20:20:24.530Z,99091.48
2018-07-23T20:22:58.996Z,99093.20
2018-07-23T20:25:33.658Z,99089.73
2018-07-23T20:28:08.281Z,99084.98
2018-07-23T20:30:43.034Z,99089.72
2018-07-23T20:33:17.638Z,99089.52
2018-07-23T20:35:52.090Z,99079.84
2018-07-23T20:38:35.313Z,99091.00
2018-07-23T20:41:09.764Z,99087.89
2018-07-23T20:43:44.782Z,99082.54
2018-07-23T20:46:19.651Z,99084.33
2018-07-23T20:48:54.440Z,99085.11
2018-07-23T20:51:29.230Z,99086.19
2018-07-23T20:54:03.726Z,99084.99
2018-07-23T20:56:38.391Z,99087.17
2018-07-23T20:59:13.070Z,99079.05
2018-07-23T21:01:47.640Z,99079.47
2018-07-23T21:04:22.211Z,99079.71
2018-07-23T21:06:57.159Z,99084.66
2018-07-23T21:09:32.080Z,99079.71
2018-07-23T21:12:07.213Z,99078.08
2018-07-23T21:14:41.681Z,99085.56
2018-07-23T21:17:16.455Z,99089.09
2018-07-23T21:19:51.053Z,99084.49
2018-07-23T21:22:26.221Z,99093.58
2018-07-23T21:25:00.711Z,99090.00
2018-07-23T21:27:35.356Z,99097.34
2018-07-23T21:30:10.279Z,99092.41
2018-07-23T21:32:44.915Z,99087.27
2018-07-23T21:35:19.813Z,99096.22
2018-07-23T21:37:54.568Z,99097.94
2018-07-23T21:40:29.327Z,99095.97
2018-07-23T21:43:05.358Z,99092.98
2018-07-23T21:45:40.152Z,99099.09
2018-07-23T21:48:15.126Z,99095.68
2018-07-23T21:50:49.666Z,99094.41
2018-07-23T21:53:24.773Z,99096.66
2018-07-23T21:55:59.335Z,99096.53
2018-07-23T21:58:34.006Z,99093.47
2018-07-23T22:01:08.742Z,99088.67
2018-07-23T22:03:43.157Z,99085.03
2018-07-23T22:06:21.884Z,99087.91
2018-07-23T22:08:56.812Z,99090.20
2018-07-23T22:11:31.682Z,99089.44
2018-07-23T22:14:12.020Z,99092.72
2018-07-23T22:16:46.549Z,99093.62
2018-07-23T22:19:21.065Z,99088.44
2018-07-23T22:21:55.833Z,99096.80
2018-07-23T22:24:30.382Z,99091.53
2018-07-23T22:27:05.558Z,99090.83
2018-07-23T22:29:40.012Z,99092.66
2018-07-23T22:32:14.545Z,99089.91
2018-07-23T22:34:49.211Z,99091.64
2018-07-23T22:37:23.738Z,99085.95
2018-07-23T22:39:58.244Z,99089.41
2018-07-23T22:42:32.857Z,99089.66
2018-07-23T22:45:07.304Z,99095.55
2018-07-23T22:47:41.999Z,99097.45
2018-07-23T22:50:19.732Z,99094.07
2018-07-23T22:52:54.384Z,99095.48
2018-07-23T22:55:29.015Z,99084.49
2018-07-23T22:58:03.509Z,99089.35
2018-07-23T23:00:38.111Z,99090.41
2018-07-23T23:03:12.640Z,99082.59
2018-07-23T23:05:47.381Z,99082.23
2018-07-23T23:08:22.025Z,99087.59
2018-07-23T23:10:56.575Z,99084.23
2018-07-23T23:13:31.233Z,99082.93
2018-07-23T23:16:05.600Z,99082.73
2018-07-23T23:18:40.008Z,99078.55
2018-07-23T23:21:14.392Z,99082.82
2018-07-23T23:23:50.298Z,99078.26
2018-07-23T23:26:30.276Z,99080.05
2018-07-23T23:29:05.080Z,99083.17
2018-07-23T23:31:39.884Z,99077.94
2018-07-23T23:34:14.328Z,99079.29
2018-07-23T23:36:48.809Z,99084.41
2018-07-23T23:39:23.290Z,99080.47
2018-07-23T23:41:57.664Z,99077.70
2018-07-23T23:44:32.180Z,99078.26
2018-07-23T23:47:06.728Z,99078.75
2018-07-23T23:49:41.477Z,99076.13
2018-07-23T23:52:15.895Z,99077.45
2018-07-23T23:54:50.332Z,99073.27
2018-07-23T23:57:24.724Z,99065.63
2018-07-23T23:59:59.343Z,99068.24
